CheckWX is a tool to help pilots better visualize weather data.  It is not intended as a substitute for an official pre-flight weather briefing.

12:12:18 UTC

SBPA METAR
Salgado Filho Airport
Porto Alegre, Brazil
Current

12 mins ago

SBPA 161200Z 11006KT CAVOK 19/17 Q1020
Observed
Oct-16 @ 12:00 UTC
Wind
  • 110° at 6 KTS
Visibility
10,000+ meters
Flight Rules
VFR
Cloud Levels
  • Clear skies
Temperature
19°C / 66°F
Dewpoint
17°C / 63°F
Humidity
88%
Altimeter
30.12" Hg
Pressure
1019.92 hPa
Previous

1 hour ago

SBPA 161100Z 11007KT 090V150 9999 FEW015 BKN070 18/17 Q1020
Observed
Oct-16 @ 11:00 UTC
Wind
  • 110° at 7 KTS
Visibility
10,000+ meters
Flight Rules
VFR
Cloud Levels
  • Few at 1,500' AGL
  • Broken at 7,000' AGL
Temperature
18°C / 64°F
Dewpoint
17°C / 63°F
Humidity
94%
Altimeter
30.12" Hg
Pressure
1019.92 hPa
Previous

2 hours ago

SBPA 161000Z 09013KT 9999 FEW015 SCT050 BKN070 18/17 Q1018
Observed
Oct-16 @ 10:00 UTC
Wind
  • 090° at 13 KTS
Visibility
10,000+ meters
Flight Rules
VFR
Cloud Levels
  • Few at 1,500' AGL
  • Scattered at 5,000' AGL
  • Broken at 7,000' AGL
Temperature
18°C / 64°F
Dewpoint
17°C / 63°F
Humidity
94%
Altimeter
30.06" Hg
Pressure
1017.92 hPa